sensor_id;sensor_type;location;lat;lon;timestamp;P1;durP1;ratioP1;P2;durP2;ratioP2
24619;SDS011;12763;55.802;37.404;2022-12-18T00:01:42;20.15;;;8.57;;
24619;SDS011;12763;55.802;37.404;2022-12-18T00:04:14;15.93;;;7.75;;
24619;SDS011;12763;55.802;37.404;2022-12-18T00:06:45;19.83;;;7.88;;
24619;SDS011;12763;55.802;37.404;2022-12-18T00:09:10;16.65;;;8.30;;
24619;SDS011;12763;55.802;37.404;2022-12-18T00:11:36;14.25;;;8.02;;
24619;SDS011;12763;55.802;37.404;2022-12-18T00:14:02;17.45;;;8.18;;
24619;SDS011;12763;55.802;37.404;2022-12-18T00:16:28;17.77;;;8.30;;
24619;SDS011;12763;55.802;37.404;2022-12-18T00:18:56;14.70;;;7.32;;
24619;SDS011;12763;55.802;37.404;2022-12-18T00:21:22;16.85;;;7.50;;
24619;SDS011;12763;55.802;37.404;2022-12-18T00:23:49;17.45;;;7.53;;
24619;SDS011;12763;55.802;37.404;2022-12-18T00:26:16;15.18;;;7.22;;
24619;SDS011;12763;55.802;37.404;2022-12-18T00:29:11;17.83;;;8.55;;
24619;SDS011;12763;55.802;37.404;2022-12-18T00:31:39;16.35;;;7.70;;
24619;SDS011;12763;55.802;37.404;2022-12-18T00:34:05;13.93;;;7.25;;
24619;SDS011;12763;55.802;37.404;2022-12-18T00:36:32;16.90;;;7.90;;
24619;SDS011;12763;55.802;37.404;2022-12-18T00:39:00;14.95;;;7.75;;
24619;SDS011;12763;55.802;37.404;2022-12-18T00:41:28;16.00;;;7.03;;
24619;SDS011;12763;55.802;37.404;2022-12-18T00:44:14;17.23;;;7.95;;
24619;SDS011;12763;55.802;37.404;2022-12-18T00:46:42;17.85;;;7.07;;
24619;SDS011;12763;55.802;37.404;2022-12-18T00:49:09;15.18;;;7.13;;
24619;SDS011;12763;55.802;37.404;2022-12-18T00:51:37;16.52;;;7.43;;
24619;SDS011;12763;55.802;37.404;2022-12-18T00:54:03;12.85;;;6.47;;
24619;SDS011;12763;55.802;37.404;2022-12-18T00:56:29;21.58;;;8.10;;
24619;SDS011;12763;55.802;37.404;2022-12-18T00:58:55;20.67;;;7.80;;
24619;SDS011;12763;55.802;37.404;2022-12-18T01:01:21;17.33;;;7.38;;
24619;SDS011;12763;55.802;37.404;2022-12-18T01:03:47;14.68;;;6.93;;
24619;SDS011;12763;55.802;37.404;2022-12-18T01:06:15;16.52;;;7.25;;
24619;SDS011;12763;55.802;37.404;2022-12-18T01:08:41;17.60;;;7.13;;
24619;SDS011;12763;55.802;37.404;2022-12-18T01:11:12;13.65;;;7.07;;
24619;SDS011;12763;55.802;37.404;2022-12-18T01:13:40;12.82;;;7.53;;
24619;SDS011;12763;55.802;37.404;2022-12-18T01:16:07;15.95;;;6.78;;
24619;SDS011;12763;55.802;37.404;2022-12-18T01:18:34;16.48;;;6.90;;
24619;SDS011;12763;55.802;37.404;2022-12-18T01:21:00;20.42;;;7.82;;
24619;SDS011;12763;55.802;37.404;2022-12-18T01:23:30;13.45;;;6.70;;
24619;SDS011;12763;55.802;37.404;2022-12-18T01:25:56;17.17;;;6.70;;
24619;SDS011;12763;55.802;37.404;2022-12-18T01:28:21;13.93;;;6.15;;
24619;SDS011;12763;55.802;37.404;2022-12-18T01:30:47;17.00;;;7.05;;
24619;SDS011;12763;55.802;37.404;2022-12-18T01:33:13;13.77;;;6.95;;
24619;SDS011;12763;55.802;37.404;2022-12-18T01:35:42;11.45;;;5.72;;
24619;SDS011;12763;55.802;37.404;2022-12-18T01:38:08;14.70;;;6.75;;
24619;SDS011;12763;55.802;37.404;2022-12-18T01:40:34;13.55;;;6.68;;
24619;SDS011;12763;55.802;37.404;2022-12-18T01:43:00;16.42;;;6.93;;
24619;SDS011;12763;55.802;37.404;2022-12-18T01:45:27;13.98;;;6.43;;
24619;SDS011;12763;55.802;37.404;2022-12-18T01:48:01;13.38;;;7.25;;
24619;SDS011;12763;55.802;37.404;2022-12-18T01:50:34;12.48;;;5.82;;
24619;SDS011;12763;55.802;37.404;2022-12-18T01:55:55;12.85;;;5.72;;
24619;SDS011;12763;55.802;37.404;2022-12-18T01:58:24;16.05;;;7.30;;
24619;SDS011;12763;55.802;37.404;2022-12-18T02:01:16;12.18;;;6.30;;
24619;SDS011;12763;55.802;37.404;2022-12-18T02:03:42;14.07;;;6.80;;
24619;SDS011;12763;55.802;37.404;2022-12-18T02:14:23;12.93;;;6.53;;
24619;SDS011;12763;55.802;37.404;2022-12-18T02:28:19;18.05;;;7.00;;
24619;SDS011;12763;55.802;37.404;2022-12-18T02:30:49;12.75;;;6.07;;
24619;SDS011;12763;55.802;37.404;2022-12-18T02:33:19;13.80;;;5.88;;
24619;SDS011;12763;55.802;37.404;2022-12-18T02:35:51;13.65;;;5.75;;
24619;SDS011;12763;55.802;37.404;2022-12-18T02:38:20;14.80;;;5.95;;
24619;SDS011;12763;55.802;37.404;2022-12-18T02:40:49;14.52;;;6.57;;
24619;SDS011;12763;55.802;37.404;2022-12-18T02:43:17;12.88;;;6.47;;
24619;SDS011;12763;55.802;37.404;2022-12-18T02:45:50;10.95;;;5.45;;
24619;SDS011;12763;55.802;37.404;2022-12-18T02:48:21;15.23;;;7.07;;
24619;SDS011;12763;55.802;37.404;2022-12-18T02:53:43;11.60;;;6.15;;
24619;SDS011;12763;55.802;37.404;2022-12-18T02:56:16;11.63;;;6.10;;
24619;SDS011;12763;55.802;37.404;2022-12-18T03:01:43;12.02;;;5.65;;
24619;SDS011;12763;55.802;37.404;2022-12-18T03:04:25;15.00;;;6.43;;
24619;SDS011;12763;55.802;37.404;2022-12-18T03:06:59;11.80;;;6.40;;
24619;SDS011;12763;55.802;37.404;2022-12-18T03:09:35;9.40;;;5.43;;
24619;SDS011;12763;55.802;37.404;2022-12-18T03:12:13;17.83;;;6.50;;
24619;SDS011;12763;55.802;37.404;2022-12-18T03:14:54;10.88;;;5.53;;
24619;SDS011;12763;55.802;37.404;2022-12-18T03:17:26;19.02;;;5.95;;
24619;SDS011;12763;55.802;37.404;2022-12-18T03:19:55;11.90;;;5.88;;
24619;SDS011;12763;55.802;37.404;2022-12-18T03:22:25;14.40;;;5.90;;
24619;SDS011;12763;55.802;37.404;2022-12-18T03:24:56;10.48;;;5.03;;
24619;SDS011;12763;55.802;37.404;2022-12-18T03:27:23;10.35;;;5.50;;
24619;SDS011;12763;55.802;37.404;2022-12-18T03:30:15;11.25;;;4.90;;
24619;SDS011;12763;55.802;37.404;2022-12-18T03:32:52;11.13;;;5.75;;
24619;SDS011;12763;55.802;37.404;2022-12-18T03:35:26;13.60;;;6.28;;
24619;SDS011;12763;55.802;37.404;2022-12-18T03:37:55;11.43;;;5.05;;
24619;SDS011;12763;55.802;37.404;2022-12-18T03:40:26;12.75;;;5.68;;
24619;SDS011;12763;55.802;37.404;2022-12-18T03:43:00;11.38;;;5.18;;
24619;SDS011;12763;55.802;37.404;2022-12-18T03:45:41;13.27;;;5.00;;
24619;SDS011;12763;55.802;37.404;2022-12-18T03:53:28;15.13;;;5.47;;
24619;SDS011;12763;55.802;37.404;2022-12-18T03:56:02;13.27;;;6.13;;
24619;SDS011;12763;55.802;37.404;2022-12-18T03:58:34;12.43;;;5.32;;
24619;SDS011;12763;55.802;37.404;2022-12-18T04:01:14;11.50;;;5.78;;
24619;SDS011;12763;55.802;37.404;2022-12-18T04:03:43;9.73;;;5.82;;
24619;SDS011;12763;55.802;37.404;2022-12-18T04:06:11;14.32;;;6.05;;
24619;SDS011;12763;55.802;37.404;2022-12-18T04:08:39;12.75;;;5.88;;
24619;SDS011;12763;55.802;37.404;2022-12-18T04:11:08;15.80;;;6.05;;
24619;SDS011;12763;55.802;37.404;2022-12-18T04:13:35;9.70;;;5.45;;
24619;SDS011;12763;55.802;37.404;2022-12-18T04:16:05;10.95;;;4.75;;
24619;SDS011;12763;55.802;37.404;2022-12-18T04:18:31;14.15;;;6.28;;
24619;SDS011;12763;55.802;37.404;2022-12-18T04:20:59;15.90;;;6.13;;
24619;SDS011;12763;55.802;37.404;2022-12-18T04:23:25;13.73;;;5.30;;
24619;SDS011;12763;55.802;37.404;2022-12-18T04:25:55;11.98;;;5.55;;
24619;SDS011;12763;55.802;37.404;2022-12-18T04:28:35;9.75;;;5.13;;
24619;SDS011;12763;55.802;37.404;2022-12-18T04:31:02;10.88;;;5.38;;
24619;SDS011;12763;55.802;37.404;2022-12-18T04:33:27;11.60;;;5.75;;
24619;SDS011;12763;55.802;37.404;2022-12-18T04:35:53;8.45;;;4.20;;
24619;SDS011;12763;55.802;37.404;2022-12-18T04:38:19;10.70;;;5.32;;
24619;SDS011;12763;55.802;37.404;2022-12-18T04:40:50;11.45;;;6.13;;
24619;SDS011;12763;55.802;37.404;2022-12-18T04:43:23;15.02;;;5.53;;
24619;SDS011;12763;55.802;37.404;2022-12-18T04:45:48;9.65;;;5.53;;
24619;SDS011;12763;55.802;37.404;2022-12-18T04:48:14;12.60;;;5.50;;
24619;SDS011;12763;55.802;37.404;2022-12-18T04:50:40;9.95;;;4.78;;
24619;SDS011;12763;55.802;37.404;2022-12-18T04:53:06;11.40;;;5.85;;
24619;SDS011;12763;55.802;37.404;2022-12-18T04:55:32;11.90;;;5.50;;
24619;SDS011;12763;55.802;37.404;2022-12-18T04:57:57;10.25;;;5.30;;
24619;SDS011;12763;55.802;37.404;2022-12-18T05:00:23;14.55;;;6.00;;
24619;SDS011;12763;55.802;37.404;2022-12-18T05:02:49;15.30;;;6.35;;
24619;SDS011;12763;55.802;37.404;2022-12-18T05:05:15;15.38;;;5.63;;
24619;SDS011;12763;55.802;37.404;2022-12-18T05:07:41;15.77;;;6.25;;
24619;SDS011;12763;55.802;37.404;2022-12-18T05:10:07;9.43;;;4.80;;
24619;SDS011;12763;55.802;37.404;2022-12-18T05:12:33;11.00;;;5.88;;
24619;SDS011;12763;55.802;37.404;2022-12-18T05:14:59;9.13;;;4.25;;
24619;SDS011;12763;55.802;37.404;2022-12-18T05:17:25;14.70;;;5.53;;
24619;SDS011;12763;55.802;37.404;2022-12-18T05:19:50;14.77;;;6.40;;
24619;SDS011;12763;55.802;37.404;2022-12-18T05:22:16;10.45;;;5.57;;
24619;SDS011;12763;55.802;37.404;2022-12-18T05:24:42;11.18;;;5.05;;
24619;SDS011;12763;55.802;37.404;2022-12-18T05:27:08;11.48;;;5.93;;
24619;SDS011;12763;55.802;37.404;2022-12-18T05:29:34;12.48;;;5.75;;
24619;SDS011;12763;55.802;37.404;2022-12-18T05:31:59;13.73;;;5.43;;
24619;SDS011;12763;55.802;37.404;2022-12-18T05:34:25;12.63;;;6.28;;
24619;SDS011;12763;55.802;37.404;2022-12-18T05:36:51;11.57;;;5.28;;
24619;SDS011;12763;55.802;37.404;2022-12-18T05:39:16;10.60;;;4.85;;
24619;SDS011;12763;55.802;37.404;2022-12-18T05:41:42;10.45;;;4.68;;
24619;SDS011;12763;55.802;37.404;2022-12-18T05:44:08;7.97;;;4.28;;
24619;SDS011;12763;55.802;37.404;2022-12-18T05:46:34;13.05;;;4.97;;
24619;SDS011;12763;55.802;37.404;2022-12-18T05:49:00;12.45;;;5.43;;
24619;SDS011;12763;55.802;37.404;2022-12-18T05:51:26;11.93;;;5.80;;
24619;SDS011;12763;55.802;37.404;2022-12-18T05:53:52;12.48;;;6.38;;
24619;SDS011;12763;55.802;37.404;2022-12-18T05:56:19;15.35;;;5.10;;
24619;SDS011;12763;55.802;37.404;2022-12-18T05:58:46;15.23;;;5.25;;
24619;SDS011;12763;55.802;37.404;2022-12-18T06:01:16;12.77;;;5.82;;
24619;SDS011;12763;55.802;37.404;2022-12-18T06:03:43;14.50;;;5.28;;
24619;SDS011;12763;55.802;37.404;2022-12-18T06:06:13;12.45;;;4.88;;
24619;SDS011;12763;55.802;37.404;2022-12-18T06:08:40;12.48;;;4.70;;
24619;SDS011;12763;55.802;37.404;2022-12-18T06:11:06;9.90;;;5.15;;
24619;SDS011;12763;55.802;37.404;2022-12-18T06:13:32;12.45;;;5.82;;
24619;SDS011;12763;55.802;37.404;2022-12-18T06:15:59;10.45;;;4.82;;
24619;SDS011;12763;55.802;37.404;2022-12-18T06:18:27;12.65;;;4.82;;
24619;SDS011;12763;55.802;37.404;2022-12-18T06:20:56;14.32;;;5.25;;
24619;SDS011;12763;55.802;37.404;2022-12-18T06:23:22;11.75;;;4.90;;
24619;SDS011;12763;55.802;37.404;2022-12-18T06:25:48;11.93;;;5.18;;
24619;SDS011;12763;55.802;37.404;2022-12-18T06:28:14;11.70;;;5.60;;
24619;SDS011;12763;55.802;37.404;2022-12-18T06:30:42;11.85;;;5.53;;
24619;SDS011;12763;55.802;37.404;2022-12-18T06:33:09;10.25;;;4.75;;
24619;SDS011;12763;55.802;37.404;2022-12-18T06:35:34;12.68;;;6.00;;
24619;SDS011;12763;55.802;37.404;2022-12-18T06:38:01;14.13;;;6.30;;
24619;SDS011;12763;55.802;37.404;2022-12-18T06:40:27;13.70;;;5.18;;
24619;SDS011;12763;55.802;37.404;2022-12-18T06:42:53;15.10;;;5.38;;
24619;SDS011;12763;55.802;37.404;2022-12-18T06:45:18;12.27;;;5.45;;
24619;SDS011;12763;55.802;37.404;2022-12-18T06:47:44;10.60;;;5.65;;
24619;SDS011;12763;55.802;37.404;2022-12-18T06:50:10;17.25;;;5.10;;
24619;SDS011;12763;55.802;37.404;2022-12-18T06:52:37;10.63;;;4.97;;
24619;SDS011;12763;55.802;37.404;2022-12-18T06:55:04;12.30;;;5.30;;
24619;SDS011;12763;55.802;37.404;2022-12-18T06:57:30;12.13;;;5.82;;
24619;SDS011;12763;55.802;37.404;2022-12-18T06:59:56;11.55;;;5.32;;
24619;SDS011;12763;55.802;37.404;2022-12-18T07:02:21;13.48;;;5.43;;
24619;SDS011;12763;55.802;37.404;2022-12-18T07:04:50;15.50;;;6.05;;
24619;SDS011;12763;55.802;37.404;2022-12-18T07:07:16;11.88;;;5.07;;
24619;SDS011;12763;55.802;37.404;2022-12-18T07:09:42;12.93;;;5.78;;
24619;SDS011;12763;55.802;37.404;2022-12-18T07:12:07;10.18;;;5.18;;
24619;SDS011;12763;55.802;37.404;2022-12-18T07:14:33;10.10;;;5.45;;
24619;SDS011;12763;55.802;37.404;2022-12-18T07:16:59;13.48;;;5.55;;
24619;SDS011;12763;55.802;37.404;2022-12-18T07:19:25;12.82;;;5.53;;
24619;SDS011;12763;55.802;37.404;2022-12-18T07:21:50;11.82;;;5.30;;
24619;SDS011;12763;55.802;37.404;2022-12-18T07:24:16;9.38;;;4.85;;
24619;SDS011;12763;55.802;37.404;2022-12-18T07:26:42;10.55;;;5.10;;
24619;SDS011;12763;55.802;37.404;2022-12-18T07:29:10;8.73;;;4.35;;
24619;SDS011;12763;55.802;37.404;2022-12-18T07:31:36;14.43;;;5.47;;
24619;SDS011;12763;55.802;37.404;2022-12-18T07:34:01;12.38;;;5.90;;
24619;SDS011;12763;55.802;37.404;2022-12-18T07:36:27;7.60;;;4.43;;
24619;SDS011;12763;55.802;37.404;2022-12-18T07:38:53;15.18;;;5.63;;
24619;SDS011;12763;55.802;37.404;2022-12-18T07:41:19;12.32;;;5.53;;
24619;SDS011;12763;55.802;37.404;2022-12-18T07:43:45;14.30;;;5.93;;
24619;SDS011;12763;55.802;37.404;2022-12-18T07:46:11;9.95;;;4.50;;
24619;SDS011;12763;55.802;37.404;2022-12-18T07:48:41;7.25;;;3.40;;
24619;SDS011;12763;55.802;37.404;2022-12-18T07:51:08;10.40;;;4.65;;
24619;SDS011;12763;55.802;37.404;2022-12-18T07:53:34;12.43;;;5.30;;
24619;SDS011;12763;55.802;37.404;2022-12-18T07:56:05;9.55;;;4.93;;
24619;SDS011;12763;55.802;37.404;2022-12-18T07:58:32;10.80;;;4.30;;
24619;SDS011;12763;55.802;37.404;2022-12-18T08:01:17;11.07;;;5.47;;
24619;SDS011;12763;55.802;37.404;2022-12-18T08:03:42;8.90;;;4.50;;
24619;SDS011;12763;55.802;37.404;2022-12-18T08:06:08;11.98;;;4.63;;
24619;SDS011;12763;55.802;37.404;2022-12-18T08:08:35;11.63;;;5.60;;
24619;SDS011;12763;55.802;37.404;2022-12-18T08:11:01;10.25;;;4.80;;
24619;SDS011;12763;55.802;37.404;2022-12-18T08:13:27;15.07;;;5.90;;
24619;SDS011;12763;55.802;37.404;2022-12-18T08:16:00;11.30;;;5.32;;
24619;SDS011;12763;55.802;37.404;2022-12-18T08:18:28;10.40;;;4.90;;
24619;SDS011;12763;55.802;37.404;2022-12-18T08:20:54;8.48;;;4.28;;
24619;SDS011;12763;55.802;37.404;2022-12-18T08:23:21;12.05;;;4.70;;
24619;SDS011;12763;55.802;37.404;2022-12-18T08:25:47;14.50;;;4.88;;
24619;SDS011;12763;55.802;37.404;2022-12-18T08:28:12;10.05;;;4.85;;
24619;SDS011;12763;55.802;37.404;2022-12-18T08:30:38;9.32;;;4.40;;
24619;SDS011;12763;55.802;37.404;2022-12-18T08:33:04;12.63;;;5.30;;
24619;SDS011;12763;55.802;37.404;2022-12-18T08:35:30;11.38;;;4.60;;
24619;SDS011;12763;55.802;37.404;2022-12-18T08:37:59;9.80;;;4.45;;
24619;SDS011;12763;55.802;37.404;2022-12-18T08:40:25;9.18;;;4.20;;
24619;SDS011;12763;55.802;37.404;2022-12-18T08:42:51;11.20;;;4.93;;
24619;SDS011;12763;55.802;37.404;2022-12-18T08:45:35;8.57;;;4.35;;
24619;SDS011;12763;55.802;37.404;2022-12-18T08:48:01;9.68;;;5.35;;
24619;SDS011;12763;55.802;37.404;2022-12-18T08:50:26;12.13;;;5.03;;
24619;SDS011;12763;55.802;37.404;2022-12-18T08:52:52;11.82;;;5.78;;
24619;SDS011;12763;55.802;37.404;2022-12-18T08:55:18;10.73;;;4.85;;
24619;SDS011;12763;55.802;37.404;2022-12-18T08:57:47;9.85;;;4.90;;
24619;SDS011;12763;55.802;37.404;2022-12-18T09:00:14;7.10;;;3.72;;
24619;SDS011;12763;55.802;37.404;2022-12-18T09:02:40;12.13;;;3.70;;
24619;SDS011;12763;55.802;37.404;2022-12-18T09:05:06;13.40;;;5.32;;
24619;SDS011;12763;55.802;37.404;2022-12-18T09:07:32;9.85;;;5.00;;
24619;SDS011;12763;55.802;37.404;2022-12-18T09:09:57;12.55;;;5.00;;
24619;SDS011;12763;55.802;37.404;2022-12-18T09:12:23;8.27;;;4.10;;
24619;SDS011;12763;55.802;37.404;2022-12-18T09:14:49;8.80;;;4.47;;
24619;SDS011;12763;55.802;37.404;2022-12-18T09:17:14;10.93;;;3.75;;
24619;SDS011;12763;55.802;37.404;2022-12-18T09:19:40;11.43;;;4.43;;
24619;SDS011;12763;55.802;37.404;2022-12-18T09:22:06;10.65;;;4.63;;
24619;SDS011;12763;55.802;37.404;2022-12-18T09:24:32;14.10;;;5.65;;
24619;SDS011;12763;55.802;37.404;2022-12-18T09:26:57;8.95;;;4.43;;
24619;SDS011;12763;55.802;37.404;2022-12-18T09:29:24;10.45;;;4.57;;
24619;SDS011;12763;55.802;37.404;2022-12-18T09:31:49;8.23;;;4.03;;
24619;SDS011;12763;55.802;37.404;2022-12-18T09:34:16;8.20;;;4.05;;
24619;SDS011;12763;55.802;37.404;2022-12-18T09:36:42;9.63;;;3.97;;
24619;SDS011;12763;55.802;37.404;2022-12-18T09:39:08;9.95;;;3.80;;
24619;SDS011;12763;55.802;37.404;2022-12-18T09:44:18;9.10;;;3.83;;
24619;SDS011;12763;55.802;37.404;2022-12-18T09:49:44;10.00;;;4.82;;
24619;SDS011;12763;55.802;37.404;2022-12-18T09:52:19;6.78;;;3.55;;
24619;SDS011;12763;55.802;37.404;2022-12-18T09:54:55;7.85;;;3.40;;
24619;SDS011;12763;55.802;37.404;2022-12-18T09:57:38;6.85;;;3.70;;
24619;SDS011;12763;55.802;37.404;2022-12-18T10:00:21;7.40;;;3.25;;
24619;SDS011;12763;55.802;37.404;2022-12-18T10:02:47;7.22;;;3.75;;
24619;SDS011;12763;55.802;37.404;2022-12-18T10:05:16;6.78;;;2.83;;
24619;SDS011;12763;55.802;37.404;2022-12-18T10:08:01;11.05;;;3.65;;
24619;SDS011;12763;55.802;37.404;2022-12-18T10:13:34;10.95;;;5.68;;
24619;SDS011;12763;55.802;37.404;2022-12-18T10:16:09;7.60;;;3.13;;
24619;SDS011;12763;55.802;37.404;2022-12-18T10:19:00;7.20;;;4.13;;
24619;SDS011;12763;55.802;37.404;2022-12-18T10:21:44;9.48;;;4.00;;
24619;SDS011;12763;55.802;37.404;2022-12-18T10:27:15;9.10;;;3.60;;
24619;SDS011;12763;55.802;37.404;2022-12-18T10:29:43;4.28;;;3.20;;
24619;SDS011;12763;55.802;37.404;2022-12-18T10:32:18;11.80;;;3.75;;
24619;SDS011;12763;55.802;37.404;2022-12-18T10:34:47;9.35;;;4.45;;
24619;SDS011;12763;55.802;37.404;2022-12-18T10:37:18;4.95;;;2.80;;
24619;SDS011;12763;55.802;37.404;2022-12-18T10:39:47;11.38;;;4.95;;
24619;SDS011;12763;55.802;37.404;2022-12-18T10:42:32;7.60;;;3.42;;
24619;SDS011;12763;55.802;37.404;2022-12-18T10:45:09;10.48;;;3.40;;
24619;SDS011;12763;55.802;37.404;2022-12-18T10:47:41;8.23;;;4.35;;
24619;SDS011;12763;55.802;37.404;2022-12-18T10:50:18;11.10;;;3.70;;
24619;SDS011;12763;55.802;37.404;2022-12-18T10:52:56;7.30;;;3.15;;
24619;SDS011;12763;55.802;37.404;2022-12-18T10:55:29;6.07;;;3.42;;
24619;SDS011;12763;55.802;37.404;2022-12-18T10:58:13;6.28;;;3.38;;
24619;SDS011;12763;55.802;37.404;2022-12-18T11:00:49;6.95;;;3.78;;
24619;SDS011;12763;55.802;37.404;2022-12-18T11:03:58;9.50;;;3.60;;
24619;SDS011;12763;55.802;37.404;2022-12-18T11:09:01;9.02;;;3.70;;
24619;SDS011;12763;55.802;37.404;2022-12-18T11:11:48;9.57;;;3.97;;
24619;SDS011;12763;55.802;37.404;2022-12-18T11:14:17;7.82;;;3.05;;
24619;SDS011;12763;55.802;37.404;2022-12-18T11:16:47;4.72;;;3.13;;
24619;SDS011;12763;55.802;37.404;2022-12-18T11:19:36;9.18;;;4.07;;
24619;SDS011;12763;55.802;37.404;2022-12-18T11:22:03;8.48;;;3.67;;
24619;SDS011;12763;55.802;37.404;2022-12-18T11:24:52;7.80;;;3.80;;
24619;SDS011;12763;55.802;37.404;2022-12-18T11:27:24;6.38;;;3.38;;
24619;SDS011;12763;55.802;37.404;2022-12-18T11:29:51;6.35;;;3.05;;
24619;SDS011;12763;55.802;37.404;2022-12-18T11:32:27;9.07;;;2.42;;
24619;SDS011;12763;55.802;37.404;2022-12-18T11:35:00;7.15;;;2.97;;
24619;SDS011;12763;55.802;37.404;2022-12-18T11:37:37;6.75;;;3.35;;
24619;SDS011;12763;55.802;37.404;2022-12-18T11:40:14;4.50;;;2.58;;
24619;SDS011;12763;55.802;37.404;2022-12-18T11:42:52;5.32;;;2.88;;
24619;SDS011;12763;55.802;37.404;2022-12-18T11:45:27;6.75;;;2.90;;
24619;SDS011;12763;55.802;37.404;2022-12-18T11:53:02;8.38;;;2.97;;
24619;SDS011;12763;55.802;37.404;2022-12-18T12:01:13;7.00;;;3.15;;
24619;SDS011;12763;55.802;37.404;2022-12-18T12:18:43;5.03;;;2.53;;
24619;SDS011;12763;55.802;37.404;2022-12-18T12:27:13;7.85;;;3.10;;
24619;SDS011;12763;55.802;37.404;2022-12-18T12:29:55;6.60;;;3.38;;
24619;SDS011;12763;55.802;37.404;2022-12-18T12:35:36;10.05;;;3.15;;
24619;SDS011;12763;55.802;37.404;2022-12-18T12:38:18;14.57;;;4.65;;
24619;SDS011;12763;55.802;37.404;2022-12-18T12:40:51;8.60;;;3.58;;
24619;SDS011;12763;55.802;37.404;2022-12-18T12:43:40;12.93;;;3.53;;
24619;SDS011;12763;55.802;37.404;2022-12-18T12:46:11;7.57;;;3.83;;
24619;SDS011;12763;55.802;37.404;2022-12-18T12:48:46;10.73;;;4.63;;
24619;SDS011;12763;55.802;37.404;2022-12-18T12:51:19;7.45;;;3.58;;
24619;SDS011;12763;55.802;37.404;2022-12-18T12:53:48;12.68;;;4.63;;
24619;SDS011;12763;55.802;37.404;2022-12-18T12:56:15;19.17;;;4.43;;
24619;SDS011;12763;55.802;37.404;2022-12-18T12:58:49;13.63;;;4.38;;
24619;SDS011;12763;55.802;37.404;2022-12-18T13:04:28;13.50;;;5.22;;
24619;SDS011;12763;55.802;37.404;2022-12-18T13:10:10;18.80;;;5.72;;
24619;SDS011;12763;55.802;37.404;2022-12-18T13:15:49;27.70;;;7.72;;
24619;SDS011;12763;55.802;37.404;2022-12-18T13:18:32;20.25;;;6.40;;
24619;SDS011;12763;55.802;37.404;2022-12-18T13:31:14;20.60;;;7.60;;
24619;SDS011;12763;55.802;37.404;2022-12-18T13:34:21;23.38;;;7.50;;
24619;SDS011;12763;55.802;37.404;2022-12-18T13:36:49;18.08;;;6.13;;
24619;SDS011;12763;55.802;37.404;2022-12-18T13:41:44;21.13;;;6.65;;
24619;SDS011;12763;55.802;37.404;2022-12-18T13:44:13;16.88;;;4.80;;
24619;SDS011;12763;55.802;37.404;2022-12-18T13:46:48;8.73;;;3.90;;
24619;SDS011;12763;55.802;37.404;2022-12-18T13:49:20;14.55;;;6.28;;
24619;SDS011;12763;55.802;37.404;2022-12-18T13:51:53;13.82;;;5.45;;
24619;SDS011;12763;55.802;37.404;2022-12-18T13:57:00;11.00;;;3.75;;
24619;SDS011;12763;55.802;37.404;2022-12-18T13:59:34;11.93;;;4.40;;
24619;SDS011;12763;55.802;37.404;2022-12-18T14:02:23;8.85;;;4.05;;
24619;SDS011;12763;55.802;37.404;2022-12-18T14:04:52;13.90;;;5.60;;
24619;SDS011;12763;55.802;37.404;2022-12-18T14:07:23;12.57;;;5.25;;
24619;SDS011;12763;55.802;37.404;2022-12-18T14:09:52;13.45;;;4.72;;
24619;SDS011;12763;55.802;37.404;2022-12-18T14:12:24;9.90;;;4.10;;
24619;SDS011;12763;55.802;37.404;2022-12-18T14:15:31;12.15;;;4.50;;
24619;SDS011;12763;55.802;37.404;2022-12-18T14:20:43;8.90;;;3.53;;
24619;SDS011;12763;55.802;37.404;2022-12-18T14:26:03;5.68;;;3.38;;
24619;SDS011;12763;55.802;37.404;2022-12-18T14:28:46;8.30;;;3.53;;
24619;SDS011;12763;55.802;37.404;2022-12-18T14:31:19;10.48;;;4.18;;
24619;SDS011;12763;55.802;37.404;2022-12-18T14:33:46;9.15;;;4.38;;
24619;SDS011;12763;55.802;37.404;2022-12-18T14:36:16;8.70;;;4.38;;
24619;SDS011;12763;55.802;37.404;2022-12-18T14:38:47;10.65;;;4.88;;
24619;SDS011;12763;55.802;37.404;2022-12-18T14:41:16;8.35;;;3.55;;
24619;SDS011;12763;55.802;37.404;2022-12-18T14:43:44;9.20;;;4.13;;
24619;SDS011;12763;55.802;37.404;2022-12-18T14:48:56;7.03;;;2.97;;
24619;SDS011;12763;55.802;37.404;2022-12-18T14:51:24;7.22;;;3.40;;
24619;SDS011;12763;55.802;37.404;2022-12-18T14:56:32;10.60;;;4.07;;
24619;SDS011;12763;55.802;37.404;2022-12-18T14:59:02;9.18;;;3.88;;
24619;SDS011;12763;55.802;37.404;2022-12-18T15:01:34;7.97;;;3.40;;
24619;SDS011;12763;55.802;37.404;2022-12-18T15:04:03;7.95;;;3.65;;
24619;SDS011;12763;55.802;37.404;2022-12-18T15:06:32;6.10;;;2.85;;
24619;SDS011;12763;55.802;37.404;2022-12-18T15:09:05;9.95;;;3.42;;
24619;SDS011;12763;55.802;37.404;2022-12-18T15:11:48;7.93;;;3.45;;
24619;SDS011;12763;55.802;37.404;2022-12-18T15:17:03;7.80;;;4.00;;
24619;SDS011;12763;55.802;37.404;2022-12-18T15:19:39;11.52;;;4.60;;
24619;SDS011;12763;55.802;37.404;2022-12-18T15:22:20;11.32;;;4.80;;
24619;SDS011;12763;55.802;37.404;2022-12-18T15:24:54;9.90;;;3.55;;
24619;SDS011;12763;55.802;37.404;2022-12-18T15:27:23;10.60;;;4.45;;
24619;SDS011;12763;55.802;37.404;2022-12-18T15:29:59;4.93;;;2.90;;
24619;SDS011;12763;55.802;37.404;2022-12-18T15:32:41;7.93;;;3.17;;
24619;SDS011;12763;55.802;37.404;2022-12-18T15:35:18;10.82;;;5.40;;
24619;SDS011;12763;55.802;37.404;2022-12-18T15:37:48;8.27;;;3.50;;
24619;SDS011;12763;55.802;37.404;2022-12-18T15:40:19;14.60;;;5.88;;
24619;SDS011;12763;55.802;37.404;2022-12-18T15:42:47;11.73;;;5.22;;
24619;SDS011;12763;55.802;37.404;2022-12-18T15:45:34;9.68;;;4.78;;
24619;SDS011;12763;55.802;37.404;2022-12-18T15:50:48;9.88;;;4.07;;
24619;SDS011;12763;55.802;37.404;2022-12-18T15:53:15;11.40;;;5.43;;
24619;SDS011;12763;55.802;37.404;2022-12-18T15:55:41;12.13;;;4.93;;
24619;SDS011;12763;55.802;37.404;2022-12-18T15:58:26;12.38;;;5.22;;
24619;SDS011;12763;55.802;37.404;2022-12-18T16:00:51;15.55;;;6.32;;
24619;SDS011;12763;55.802;37.404;2022-12-18T16:03:18;13.38;;;4.97;;
24619;SDS011;12763;55.802;37.404;2022-12-18T16:05:43;16.92;;;6.70;;
24619;SDS011;12763;55.802;37.404;2022-12-18T16:08:09;10.80;;;4.72;;
24619;SDS011;12763;55.802;37.404;2022-12-18T16:10:35;11.82;;;5.80;;
24619;SDS011;12763;55.802;37.404;2022-12-18T16:13:01;10.75;;;5.20;;
24619;SDS011;12763;55.802;37.404;2022-12-18T16:15:27;13.15;;;4.60;;
24619;SDS011;12763;55.802;37.404;2022-12-18T16:17:52;9.48;;;4.68;;
24619;SDS011;12763;55.802;37.404;2022-12-18T16:20:19;11.82;;;4.38;;
24619;SDS011;12763;55.802;37.404;2022-12-18T16:22:46;9.75;;;4.43;;
24619;SDS011;12763;55.802;37.404;2022-12-18T16:25:24;13.07;;;5.47;;
24619;SDS011;12763;55.802;37.404;2022-12-18T16:27:52;6.72;;;3.67;;
24619;SDS011;12763;55.802;37.404;2022-12-18T16:30:30;9.85;;;4.10;;
24619;SDS011;12763;55.802;37.404;2022-12-18T16:32:57;11.50;;;5.15;;
24619;SDS011;12763;55.802;37.404;2022-12-18T16:35:24;13.38;;;4.90;;
24619;SDS011;12763;55.802;37.404;2022-12-18T16:37:52;14.25;;;5.72;;
24619;SDS011;12763;55.802;37.404;2022-12-18T16:40:18;9.05;;;4.10;;
24619;SDS011;12763;55.802;37.404;2022-12-18T16:42:44;11.38;;;4.78;;
24619;SDS011;12763;55.802;37.404;2022-12-18T16:45:12;16.20;;;5.78;;
24619;SDS011;12763;55.802;37.404;2022-12-18T16:47:39;14.63;;;5.65;;